sensor_id;sensor_type;location;lat;lon;timestamp;P1;durP1;ratioP1;P2;durP2;ratioP2
29662;SDS011;16578;53.266;7.920;2022-08-25T00:01:31;4.30;;;2.90;;
29662;SDS011;16578;53.266;7.920;2022-08-25T00:04:00;4.93;;;3.00;;
29662;SDS011;16578;53.266;7.920;2022-08-25T00:06:27;7.07;;;2.58;;
29662;SDS011;16578;53.266;7.920;2022-08-25T00:08:53;2.58;;;2.38;;
29662;SDS011;16578;53.266;7.920;2022-08-25T00:11:23;3.85;;;2.70;;
29662;SDS011;16578;53.266;7.920;2022-08-25T00:13:53;3.97;;;2.17;;
29662;SDS011;16578;53.266;7.920;2022-08-25T00:16:24;5.65;;;2.88;;
29662;SDS011;16578;53.266;7.920;2022-08-25T00:18:53;3.25;;;2.65;;
29662;SDS011;16578;53.266;7.920;2022-08-25T00:21:21;5.43;;;2.42;;
29662;SDS011;16578;53.266;7.920;2022-08-25T00:23:47;8.00;;;3.28;;
29662;SDS011;16578;53.266;7.920;2022-08-25T00:26:13;6.55;;;2.78;;
29662;SDS011;16578;53.266;7.920;2022-08-25T00:28:40;4.30;;;2.92;;
29662;SDS011;16578;53.266;7.920;2022-08-25T00:31:09;6.10;;;3.15;;
29662;SDS011;16578;53.266;7.920;2022-08-25T00:33:36;6.30;;;2.80;;
29662;SDS011;16578;53.266;7.920;2022-08-25T00:36:02;7.28;;;2.92;;
29662;SDS011;16578;53.266;7.920;2022-08-25T00:38:28;4.07;;;2.90;;
29662;SDS011;16578;53.266;7.920;2022-08-25T00:40:54;6.70;;;3.15;;
29662;SDS011;16578;53.266;7.920;2022-08-25T00:46:06;3.55;;;2.60;;
29662;SDS011;16578;53.266;7.920;2022-08-25T00:48:33;7.25;;;3.17;;
29662;SDS011;16578;53.266;7.920;2022-08-25T00:51:00;4.35;;;3.08;;
29662;SDS011;16578;53.266;7.920;2022-08-25T00:53:27;3.97;;;3.17;;
29662;SDS011;16578;53.266;7.920;2022-08-25T00:55:54;3.70;;;3.08;;
29662;SDS011;16578;53.266;7.920;2022-08-25T00:58:22;5.30;;;2.80;;
29662;SDS011;16578;53.266;7.920;2022-08-25T01:00:51;5.78;;;3.22;;
29662;SDS011;16578;53.266;7.920;2022-08-25T01:03:19;4.85;;;2.92;;
29662;SDS011;16578;53.266;7.920;2022-08-25T01:05:46;4.30;;;2.75;;
29662;SDS011;16578;53.266;7.920;2022-08-25T01:08:13;6.78;;;3.40;;
29662;SDS011;16578;53.266;7.920;2022-08-25T01:10:40;5.45;;;3.05;;
29662;SDS011;16578;53.266;7.920;2022-08-25T01:13:09;3.28;;;2.97;;
29662;SDS011;16578;53.266;7.920;2022-08-25T01:15:55;5.90;;;3.15;;
29662;SDS011;16578;53.266;7.920;2022-08-25T01:18:22;6.05;;;3.58;;
29662;SDS011;16578;53.266;7.920;2022-08-25T01:20:49;6.10;;;3.58;;
29662;SDS011;16578;53.266;7.920;2022-08-25T01:23:19;5.85;;;3.20;;
29662;SDS011;16578;53.266;7.920;2022-08-25T01:28:34;4.47;;;3.20;;
29662;SDS011;16578;53.266;7.920;2022-08-25T01:31:12;4.47;;;2.90;;
29662;SDS011;16578;53.266;7.920;2022-08-25T01:33:38;3.47;;;3.03;;
29662;SDS011;16578;53.266;7.920;2022-08-25T01:36:22;4.07;;;3.35;;
29662;SDS011;16578;53.266;7.920;2022-08-25T01:38:49;4.93;;;3.40;;
29662;SDS011;16578;53.266;7.920;2022-08-25T01:41:26;4.30;;;3.38;;
29662;SDS011;16578;53.266;7.920;2022-08-25T01:44:33;3.65;;;2.90;;
29662;SDS011;16578;53.266;7.920;2022-08-25T01:50:23;6.65;;;3.13;;
29662;SDS011;16578;53.266;7.920;2022-08-25T01:55:52;3.88;;;3.20;;
29662;SDS011;16578;53.266;7.920;2022-08-25T02:01:37;5.18;;;3.67;;
29662;SDS011;16578;53.266;7.920;2022-08-25T02:04:03;3.70;;;3.15;;
29662;SDS011;16578;53.266;7.920;2022-08-25T02:06:31;4.15;;;3.70;;
29662;SDS011;16578;53.266;7.920;2022-08-25T02:08:58;4.68;;;3.63;;
29662;SDS011;16578;53.266;7.920;2022-08-25T02:11:28;4.35;;;3.45;;
29662;SDS011;16578;53.266;7.920;2022-08-25T02:13:54;6.55;;;3.75;;
29662;SDS011;16578;53.266;7.920;2022-08-25T02:16:22;4.28;;;3.50;;
29662;SDS011;16578;53.266;7.920;2022-08-25T02:19:06;5.50;;;3.80;;
29662;SDS011;16578;53.266;7.920;2022-08-25T02:23:59;4.78;;;3.60;;
29662;SDS011;16578;53.266;7.920;2022-08-25T02:26:26;5.65;;;3.80;;
29662;SDS011;16578;53.266;7.920;2022-08-25T02:28:52;6.05;;;3.60;;
29662;SDS011;16578;53.266;7.920;2022-08-25T02:31:18;6.70;;;3.97;;
29662;SDS011;16578;53.266;7.920;2022-08-25T02:33:45;4.57;;;3.63;;
29662;SDS011;16578;53.266;7.920;2022-08-25T02:36:11;5.72;;;3.42;;
29662;SDS011;16578;53.266;7.920;2022-08-25T02:38:38;5.95;;;3.70;;
29662;SDS011;16578;53.266;7.920;2022-08-25T02:41:11;5.25;;;4.18;;
29662;SDS011;16578;53.266;7.920;2022-08-25T02:43:39;4.15;;;3.75;;
29662;SDS011;16578;53.266;7.920;2022-08-25T02:46:06;4.88;;;3.92;;
29662;SDS011;16578;53.266;7.920;2022-08-25T02:48:32;6.07;;;4.22;;
29662;SDS011;16578;53.266;7.920;2022-08-25T02:50:58;5.95;;;3.70;;
29662;SDS011;16578;53.266;7.920;2022-08-25T02:53:25;6.35;;;3.67;;
29662;SDS011;16578;53.266;7.920;2022-08-25T02:55:52;5.10;;;3.60;;
29662;SDS011;16578;53.266;7.920;2022-08-25T02:58:18;4.80;;;3.88;;
29662;SDS011;16578;53.266;7.920;2022-08-25T03:00:45;5.65;;;3.90;;
29662;SDS011;16578;53.266;7.920;2022-08-25T03:03:11;8.07;;;4.20;;
29662;SDS011;16578;53.266;7.920;2022-08-25T03:05:37;5.55;;;4.20;;
29662;SDS011;16578;53.266;7.920;2022-08-25T03:08:03;5.72;;;4.47;;
29662;SDS011;16578;53.266;7.920;2022-08-25T03:10:30;4.72;;;4.22;;
29662;SDS011;16578;53.266;7.920;2022-08-25T03:12:56;6.63;;;4.28;;
29662;SDS011;16578;53.266;7.920;2022-08-25T03:15:21;5.38;;;3.97;;
29662;SDS011;16578;53.266;7.920;2022-08-25T03:17:48;5.15;;;3.60;;
29662;SDS011;16578;53.266;7.920;2022-08-25T03:20:14;5.82;;;3.88;;
29662;SDS011;16578;53.266;7.920;2022-08-25T03:22:40;7.32;;;4.07;;
29662;SDS011;16578;53.266;7.920;2022-08-25T03:25:06;5.53;;;4.07;;
29662;SDS011;16578;53.266;7.920;2022-08-25T03:27:51;8.73;;;4.57;;
29662;SDS011;16578;53.266;7.920;2022-08-25T03:30:16;6.15;;;4.25;;
29662;SDS011;16578;53.266;7.920;2022-08-25T03:32:42;4.80;;;4.20;;
29662;SDS011;16578;53.266;7.920;2022-08-25T03:35:08;9.23;;;4.65;;
29662;SDS011;16578;53.266;7.920;2022-08-25T03:37:35;8.43;;;4.05;;
29662;SDS011;16578;53.266;7.920;2022-08-25T03:40:02;7.38;;;4.05;;
29662;SDS011;16578;53.266;7.920;2022-08-25T03:42:30;7.40;;;4.60;;
29662;SDS011;16578;53.266;7.920;2022-08-25T03:44:56;10.45;;;4.70;;
29662;SDS011;16578;53.266;7.920;2022-08-25T03:47:21;7.03;;;4.85;;
29662;SDS011;16578;53.266;7.920;2022-08-25T03:49:49;5.97;;;4.38;;
29662;SDS011;16578;53.266;7.920;2022-08-25T03:52:15;6.80;;;4.93;;
29662;SDS011;16578;53.266;7.920;2022-08-25T03:54:42;6.07;;;4.78;;
29662;SDS011;16578;53.266;7.920;2022-08-25T03:57:08;5.15;;;4.68;;
29662;SDS011;16578;53.266;7.920;2022-08-25T03:59:34;6.20;;;4.05;;
29662;SDS011;16578;53.266;7.920;2022-08-25T04:02:02;5.30;;;4.60;;
29662;SDS011;16578;53.266;7.920;2022-08-25T04:04:32;5.15;;;4.30;;
29662;SDS011;16578;53.266;7.920;2022-08-25T04:06:59;8.85;;;4.07;;
29662;SDS011;16578;53.266;7.920;2022-08-25T04:09:25;9.50;;;5.05;;
29662;SDS011;16578;53.266;7.920;2022-08-25T04:11:50;5.07;;;4.60;;
29662;SDS011;16578;53.266;7.920;2022-08-25T04:14:16;5.90;;;4.45;;
29662;SDS011;16578;53.266;7.920;2022-08-25T04:16:42;8.75;;;5.20;;
29662;SDS011;16578;53.266;7.920;2022-08-25T04:19:09;6.15;;;4.22;;
29662;SDS011;16578;53.266;7.920;2022-08-25T04:21:36;7.93;;;4.72;;
29662;SDS011;16578;53.266;7.920;2022-08-25T04:24:03;7.95;;;5.10;;
29662;SDS011;16578;53.266;7.920;2022-08-25T04:26:31;5.85;;;5.30;;
29662;SDS011;16578;53.266;7.920;2022-08-25T04:29:00;12.88;;;5.70;;
29662;SDS011;16578;53.266;7.920;2022-08-25T04:31:27;7.20;;;5.47;;
29662;SDS011;16578;53.266;7.920;2022-08-25T04:33:53;10.45;;;5.60;;
29662;SDS011;16578;53.266;7.920;2022-08-25T04:36:19;7.75;;;5.07;;
29662;SDS011;16578;53.266;7.920;2022-08-25T04:38:46;9.57;;;5.18;;
29662;SDS011;16578;53.266;7.920;2022-08-25T04:41:13;7.60;;;5.10;;
29662;SDS011;16578;53.266;7.920;2022-08-25T04:43:41;11.90;;;5.90;;
29662;SDS011;16578;53.266;7.920;2022-08-25T04:46:13;10.13;;;5.55;;
29662;SDS011;16578;53.266;7.920;2022-08-25T04:48:40;10.13;;;5.95;;
29662;SDS011;16578;53.266;7.920;2022-08-25T04:51:06;8.70;;;6.03;;
29662;SDS011;16578;53.266;7.920;2022-08-25T04:53:37;8.25;;;5.70;;
29662;SDS011;16578;53.266;7.920;2022-08-25T04:56:07;13.13;;;6.25;;
29662;SDS011;16578;53.266;7.920;2022-08-25T04:58:34;12.05;;;6.53;;
29662;SDS011;16578;53.266;7.920;2022-08-25T05:01:02;11.10;;;6.88;;
29662;SDS011;16578;53.266;7.920;2022-08-25T05:03:31;6.88;;;6.18;;
29662;SDS011;16578;53.266;7.920;2022-08-25T05:05:57;10.00;;;6.45;;
29662;SDS011;16578;53.266;7.920;2022-08-25T05:08:23;8.55;;;6.55;;
29662;SDS011;16578;53.266;7.920;2022-08-25T05:10:49;10.00;;;6.22;;
29662;SDS011;16578;53.266;7.920;2022-08-25T05:13:15;7.43;;;6.60;;
29662;SDS011;16578;53.266;7.920;2022-08-25T05:15:41;9.73;;;6.70;;
29662;SDS011;16578;53.266;7.920;2022-08-25T05:18:16;10.60;;;6.57;;
29662;SDS011;16578;53.266;7.920;2022-08-25T05:20:43;8.05;;;7.05;;
29662;SDS011;16578;53.266;7.920;2022-08-25T05:23:08;8.30;;;6.45;;
29662;SDS011;16578;53.266;7.920;2022-08-25T05:25:34;8.32;;;7.03;;
29662;SDS011;16578;53.266;7.920;2022-08-25T05:28:00;9.10;;;6.95;;
29662;SDS011;16578;53.266;7.920;2022-08-25T05:30:26;9.00;;;7.43;;
29662;SDS011;16578;53.266;7.920;2022-08-25T05:32:52;10.55;;;7.35;;
29662;SDS011;16578;53.266;7.920;2022-08-25T05:35:17;11.65;;;7.63;;
29662;SDS011;16578;53.266;7.920;2022-08-25T05:37:44;11.07;;;8.10;;
29662;SDS011;16578;53.266;7.920;2022-08-25T05:40:10;8.50;;;7.65;;
29662;SDS011;16578;53.266;7.920;2022-08-25T05:42:35;11.30;;;7.70;;
29662;SDS011;16578;53.266;7.920;2022-08-25T05:45:02;9.88;;;7.40;;
29662;SDS011;16578;53.266;7.920;2022-08-25T05:47:28;11.02;;;8.00;;
29662;SDS011;16578;53.266;7.920;2022-08-25T05:49:54;10.73;;;8.00;;
29662;SDS011;16578;53.266;7.920;2022-08-25T05:52:20;9.55;;;7.47;;
29662;SDS011;16578;53.266;7.920;2022-08-25T05:54:45;9.32;;;7.60;;
29662;SDS011;16578;53.266;7.920;2022-08-25T05:57:11;8.75;;;7.82;;
29662;SDS011;16578;53.266;7.920;2022-08-25T05:59:36;11.95;;;8.57;;
29662;SDS011;16578;53.266;7.920;2022-08-25T06:02:02;12.13;;;8.38;;
29662;SDS011;16578;53.266;7.920;2022-08-25T06:04:46;8.63;;;7.80;;
29662;SDS011;16578;53.266;7.920;2022-08-25T06:07:12;10.80;;;8.02;;
29662;SDS011;16578;53.266;7.920;2022-08-25T06:09:38;10.38;;;9.07;;
29662;SDS011;16578;53.266;7.920;2022-08-25T06:12:04;9.48;;;8.57;;
29662;SDS011;16578;53.266;7.920;2022-08-25T06:14:30;9.30;;;8.35;;
29662;SDS011;16578;53.266;7.920;2022-08-25T06:16:56;9.02;;;8.02;;
29662;SDS011;16578;53.266;7.920;2022-08-25T06:19:21;11.30;;;9.13;;
29662;SDS011;16578;53.266;7.920;2022-08-25T06:21:47;12.02;;;9.10;;
29662;SDS011;16578;53.266;7.920;2022-08-25T06:24:13;10.75;;;8.57;;
29662;SDS011;16578;53.266;7.920;2022-08-25T06:26:39;10.00;;;7.80;;
29662;SDS011;16578;53.266;7.920;2022-08-25T06:29:04;11.55;;;8.82;;
29662;SDS011;16578;53.266;7.920;2022-08-25T06:31:30;13.55;;;9.68;;
29662;SDS011;16578;53.266;7.920;2022-08-25T06:33:55;11.25;;;8.48;;
29662;SDS011;16578;53.266;7.920;2022-08-25T06:36:22;9.65;;;8.68;;
29662;SDS011;16578;53.266;7.920;2022-08-25T06:38:48;10.77;;;9.15;;
29662;SDS011;16578;53.266;7.920;2022-08-25T06:41:13;12.63;;;9.07;;
29662;SDS011;16578;53.266;7.920;2022-08-25T06:43:40;12.30;;;8.80;;
29662;SDS011;16578;53.266;7.920;2022-08-25T06:46:10;10.98;;;8.50;;
29662;SDS011;16578;53.266;7.920;2022-08-25T06:48:38;12.55;;;9.20;;
29662;SDS011;16578;53.266;7.920;2022-08-25T06:51:05;11.20;;;8.45;;
29662;SDS011;16578;53.266;7.920;2022-08-25T06:53:32;9.50;;;8.47;;
29662;SDS011;16578;53.266;7.920;2022-08-25T06:55:58;10.48;;;9.05;;
29662;SDS011;16578;53.266;7.920;2022-08-25T06:58:24;10.48;;;8.57;;
29662;SDS011;16578;53.266;7.920;2022-08-25T07:00:50;11.10;;;8.45;;
29662;SDS011;16578;53.266;7.920;2022-08-25T07:03:15;14.77;;;9.15;;
29662;SDS011;16578;53.266;7.920;2022-08-25T07:05:41;9.80;;;8.73;;
29662;SDS011;16578;53.266;7.920;2022-08-25T07:08:14;10.90;;;9.05;;
29662;SDS011;16578;53.266;7.920;2022-08-25T07:10:39;11.23;;;8.60;;
29662;SDS011;16578;53.266;7.920;2022-08-25T07:13:05;11.73;;;8.60;;
29662;SDS011;16578;53.266;7.920;2022-08-25T07:15:30;9.20;;;8.30;;
29662;SDS011;16578;53.266;7.920;2022-08-25T07:17:56;10.57;;;7.97;;
29662;SDS011;16578;53.266;7.920;2022-08-25T07:20:21;13.13;;;8.98;;
29662;SDS011;16578;53.266;7.920;2022-08-25T07:22:47;9.55;;;8.10;;
29662;SDS011;16578;53.266;7.920;2022-08-25T07:25:12;11.05;;;7.90;;
29662;SDS011;16578;53.266;7.920;2022-08-25T07:27:38;9.38;;;8.13;;
29662;SDS011;16578;53.266;7.920;2022-08-25T07:30:05;9.82;;;8.00;;
29662;SDS011;16578;53.266;7.920;2022-08-25T07:32:32;10.65;;;9.20;;
29662;SDS011;16578;53.266;7.920;2022-08-25T07:34:57;11.93;;;8.32;;
29662;SDS011;16578;53.266;7.920;2022-08-25T07:37:42;11.15;;;7.47;;
29662;SDS011;16578;53.266;7.920;2022-08-25T07:40:11;9.50;;;8.40;;
29662;SDS011;16578;53.266;7.920;2022-08-25T07:42:58;9.88;;;8.02;;
29662;SDS011;16578;53.266;7.920;2022-08-25T07:47:59;8.05;;;7.18;;
29662;SDS011;16578;53.266;7.920;2022-08-25T07:50:27;8.30;;;7.45;;
29662;SDS011;16578;53.266;7.920;2022-08-25T07:52:54;9.70;;;8.00;;
29662;SDS011;16578;53.266;7.920;2022-08-25T07:55:20;10.95;;;7.72;;
29662;SDS011;16578;53.266;7.920;2022-08-25T07:57:46;9.60;;;7.47;;
29662;SDS011;16578;53.266;7.920;2022-08-25T08:00:14;8.60;;;7.45;;
29662;SDS011;16578;53.266;7.920;2022-08-25T08:02:40;10.98;;;7.85;;
29662;SDS011;16578;53.266;7.920;2022-08-25T08:05:06;9.13;;;7.53;;
29662;SDS011;16578;53.266;7.920;2022-08-25T08:07:33;9.48;;;8.23;;
29662;SDS011;16578;53.266;7.920;2022-08-25T08:09:59;11.73;;;7.57;;
29662;SDS011;16578;53.266;7.920;2022-08-25T08:12:25;10.27;;;7.20;;
29662;SDS011;16578;53.266;7.920;2022-08-25T08:14:51;8.30;;;7.50;;
29662;SDS011;16578;53.266;7.920;2022-08-25T08:17:17;10.88;;;7.18;;
29662;SDS011;16578;53.266;7.920;2022-08-25T08:19:44;7.85;;;6.90;;
29662;SDS011;16578;53.266;7.920;2022-08-25T08:22:10;10.93;;;7.57;;
29662;SDS011;16578;53.266;7.920;2022-08-25T08:24:39;12.90;;;7.65;;
29662;SDS011;16578;53.266;7.920;2022-08-25T08:27:08;13.60;;;6.88;;
29662;SDS011;16578;53.266;7.920;2022-08-25T08:29:35;7.72;;;7.03;;
29662;SDS011;16578;53.266;7.920;2022-08-25T08:32:02;8.50;;;6.65;;
29662;SDS011;16578;53.266;7.920;2022-08-25T08:34:29;11.23;;;7.00;;
29662;SDS011;16578;53.266;7.920;2022-08-25T08:36:56;7.30;;;6.57;;
29662;SDS011;16578;53.266;7.920;2022-08-25T08:39:22;9.10;;;7.13;;
29662;SDS011;16578;53.266;7.920;2022-08-25T08:52:20;6.78;;;5.78;;
29662;SDS011;16578;53.266;7.920;2022-08-25T08:54:54;7.72;;;6.10;;
29662;SDS011;16578;53.266;7.920;2022-08-25T08:57:26;9.20;;;6.30;;
29662;SDS011;16578;53.266;7.920;2022-08-25T08:59:59;6.13;;;5.47;;
29662;SDS011;16578;53.266;7.920;2022-08-25T09:02:33;6.00;;;5.40;;
29662;SDS011;16578;53.266;7.920;2022-08-25T09:05:06;11.48;;;6.35;;
29662;SDS011;16578;53.266;7.920;2022-08-25T09:07:39;11.05;;;6.32;;
29662;SDS011;16578;53.266;7.920;2022-08-25T09:10:12;8.50;;;6.22;;
29662;SDS011;16578;53.266;7.920;2022-08-25T09:12:41;8.18;;;6.60;;
29662;SDS011;16578;53.266;7.920;2022-08-25T09:15:38;6.55;;;5.20;;
29662;SDS011;16578;53.266;7.920;2022-08-25T09:26:38;7.32;;;5.00;;
29662;SDS011;16578;53.266;7.920;2022-08-25T09:29:20;8.57;;;5.45;;
29662;SDS011;16578;53.266;7.920;2022-08-25T09:31:48;5.95;;;5.40;;
29662;SDS011;16578;53.266;7.920;2022-08-25T09:34:18;7.78;;;5.07;;
29662;SDS011;16578;53.266;7.920;2022-08-25T09:36:46;6.05;;;5.13;;
29662;SDS011;16578;53.266;7.920;2022-08-25T09:39:14;5.07;;;4.68;;
29662;SDS011;16578;53.266;7.920;2022-08-25T09:41:42;10.02;;;5.22;;
29662;SDS011;16578;53.266;7.920;2022-08-25T09:44:30;7.65;;;5.15;;
29662;SDS011;16578;53.266;7.920;2022-08-25T09:47:01;10.88;;;4.97;;
29662;SDS011;16578;53.266;7.920;2022-08-25T09:49:43;5.78;;;4.60;;
29662;SDS011;16578;53.266;7.920;2022-08-25T09:55:00;8.23;;;5.60;;
29662;SDS011;16578;53.266;7.920;2022-08-25T09:57:55;4.88;;;4.43;;
29662;SDS011;16578;53.266;7.920;2022-08-25T10:00:32;7.18;;;4.60;;
29662;SDS011;16578;53.266;7.920;2022-08-25T10:03:06;9.63;;;4.70;;
29662;SDS011;16578;53.266;7.920;2022-08-25T10:05:33;5.97;;;4.90;;
29662;SDS011;16578;53.266;7.920;2022-08-25T10:08:03;5.97;;;4.35;;
29662;SDS011;16578;53.266;7.920;2022-08-25T10:10:38;5.85;;;4.13;;
29662;SDS011;16578;53.266;7.920;2022-08-25T10:13:18;5.88;;;4.55;;
29662;SDS011;16578;53.266;7.920;2022-08-25T10:15:45;5.82;;;4.07;;
29662;SDS011;16578;53.266;7.920;2022-08-25T10:18:22;7.10;;;5.13;;
29662;SDS011;16578;53.266;7.920;2022-08-25T10:21:09;6.60;;;5.10;;
29662;SDS011;16578;53.266;7.920;2022-08-25T10:23:49;6.60;;;4.93;;
29662;SDS011;16578;53.266;7.920;2022-08-25T10:26:29;4.82;;;4.35;;
29662;SDS011;16578;53.266;7.920;2022-08-25T10:29:31;7.43;;;4.53;;
29662;SDS011;16578;53.266;7.920;2022-08-25T10:32:17;9.52;;;4.47;;
29662;SDS011;16578;53.266;7.920;2022-08-25T10:35:14;8.20;;;4.50;;
29662;SDS011;16578;53.266;7.920;2022-08-25T10:40:43;7.68;;;5.15;;
29662;SDS011;16578;53.266;7.920;2022-08-25T10:48:58;8.13;;;4.57;;
29662;SDS011;16578;53.266;7.920;2022-08-25T10:51:32;6.43;;;4.82;;
29662;SDS011;16578;53.266;7.920;2022-08-25T10:56:49;5.72;;;4.88;;
29662;SDS011;16578;53.266;7.920;2022-08-25T11:05:07;10.82;;;5.20;;
29662;SDS011;16578;53.266;7.920;2022-08-25T11:07:37;11.57;;;5.43;;
29662;SDS011;16578;53.266;7.920;2022-08-25T11:10:14;8.05;;;6.03;;
29662;SDS011;16578;53.266;7.920;2022-08-25T11:12:52;7.50;;;4.70;;
29662;SDS011;16578;53.266;7.920;2022-08-25T11:15:33;9.18;;;5.05;;
29662;SDS011;16578;53.266;7.920;2022-08-25T11:18:06;5.97;;;5.10;;
29662;SDS011;16578;53.266;7.920;2022-08-25T11:20:43;5.40;;;4.90;;
29662;SDS011;16578;53.266;7.920;2022-08-25T11:25:53;7.80;;;5.32;;
29662;SDS011;16578;53.266;7.920;2022-08-25T11:28:39;8.57;;;5.45;;
29662;SDS011;16578;53.266;7.920;2022-08-25T11:31:07;8.77;;;5.80;;
29662;SDS011;16578;53.266;7.920;2022-08-25T11:33:34;8.32;;;5.53;;
29662;SDS011;16578;53.266;7.920;2022-08-25T11:47:43;8.65;;;5.38;;
29662;SDS011;16578;53.266;7.920;2022-08-25T11:50:36;8.13;;;5.30;;
29662;SDS011;16578;53.266;7.920;2022-08-25T11:53:23;6.82;;;5.55;;
29662;SDS011;16578;53.266;7.920;2022-08-25T11:55:52;7.28;;;5.63;;
29662;SDS011;16578;53.266;7.920;2022-08-25T11:58:23;15.93;;;5.28;;
29662;SDS011;16578;53.266;7.920;2022-08-25T12:00:51;7.07;;;5.05;;
29662;SDS011;16578;53.266;7.920;2022-08-25T12:11:41;7.00;;;5.10;;
29662;SDS011;16578;53.266;7.920;2022-08-25T12:24:44;10.98;;;5.30;;
29662;SDS011;16578;53.266;7.920;2022-08-25T12:29:58;7.32;;;4.55;;
29662;SDS011;16578;53.266;7.920;2022-08-25T12:32:37;6.90;;;4.88;;
29662;SDS011;16578;53.266;7.920;2022-08-25T12:37:57;7.57;;;4.85;;
29662;SDS011;16578;53.266;7.920;2022-08-25T12:45:48;5.00;;;4.50;;
29662;SDS011;16578;53.266;7.920;2022-08-25T12:48:39;6.78;;;4.75;;
29662;SDS011;16578;53.266;7.920;2022-08-25T12:51:06;7.88;;;4.85;;
29662;SDS011;16578;53.266;7.920;2022-08-25T12:56:15;4.55;;;4.13;;
29662;SDS011;16578;53.266;7.920;2022-08-25T13:07:13;4.85;;;4.35;;
29662;SDS011;16578;53.266;7.920;2022-08-25T13:15:25;5.88;;;4.45;;
29662;SDS011;16578;53.266;7.920;2022-08-25T13:18:16;6.07;;;4.68;;
29662;SDS011;16578;53.266;7.920;2022-08-25T13:20:43;5.40;;;4.35;;
29662;SDS011;16578;53.266;7.920;2022-08-25T13:23:09;6.22;;;4.57;;
29662;SDS011;16578;53.266;7.920;2022-08-25T13:25:37;5.28;;;4.72;;
29662;SDS011;16578;53.266;7.920;2022-08-25T13:28:34;7.10;;;4.78;;
29662;SDS011;16578;53.266;7.920;2022-08-25T13:31:03;7.10;;;4.53;;
29662;SDS011;16578;53.266;7.920;2022-08-25T13:33:32;6.47;;;4.00;;
29662;SDS011;16578;53.266;7.920;2022-08-25T13:35:58;6.65;;;4.30;;
29662;SDS011;16578;53.266;7.920;2022-08-25T13:38:44;5.82;;;4.30;;
29662;SDS011;16578;53.266;7.920;2022-08-25T13:41:15;5.47;;;4.20;;
29662;SDS011;16578;53.266;7.920;2022-08-25T13:43:56;7.82;;;4.20;;
29662;SDS011;16578;53.266;7.920;2022-08-25T13:46:22;4.75;;;4.35;;
29662;SDS011;16578;53.266;7.920;2022-08-25T13:48:48;5.82;;;4.18;;
29662;SDS011;16578;53.266;7.920;2022-08-25T13:53:46;6.60;;;4.22;;
29662;SDS011;16578;53.266;7.920;2022-08-25T13:56:28;5.20;;;4.50;;
29662;SDS011;16578;53.266;7.920;2022-08-25T14:01:26;5.00;;;3.80;;
29662;SDS011;16578;53.266;7.920;2022-08-25T14:03:55;6.97;;;4.43;;
29662;SDS011;16578;53.266;7.920;2022-08-25T14:06:42;6.18;;;3.95;;
29662;SDS011;16578;53.266;7.920;2022-08-25T14:09:11;9.48;;;4.82;;
29662;SDS011;16578;53.266;7.920;2022-08-25T14:11:55;7.38;;;4.10;;
29662;SDS011;16578;53.266;7.920;2022-08-25T14:16:49;5.22;;;4.25;;
29662;SDS011;16578;53.266;7.920;2022-08-25T14:19:18;5.28;;;3.72;;
29662;SDS011;16578;53.266;7.920;2022-08-25T14:21:47;5.75;;;4.38;;
29662;SDS011;16578;53.266;7.920;2022-08-25T14:24:14;5.07;;;4.10;;
29662;SDS011;16578;53.266;7.920;2022-08-25T14:26:41;8.13;;;4.18;;
29662;SDS011;16578;53.266;7.920;2022-08-25T14:29:07;4.30;;;3.90;;
29662;SDS011;16578;53.266;7.920;2022-08-25T14:31:33;4.85;;;4.07;;
29662;SDS011;16578;53.266;7.920;2022-08-25T14:34:04;5.32;;;4.00;;
29662;SDS011;16578;53.266;7.920;2022-08-25T14:36:33;5.80;;;4.50;;
29662;SDS011;16578;53.266;7.920;2022-08-25T14:38:59;5.57;;;3.97;;
29662;SDS011;16578;53.266;7.920;2022-08-25T14:41:30;5.60;;;4.05;;
29662;SDS011;16578;53.266;7.920;2022-08-25T14:43:58;5.72;;;4.40;;
29662;SDS011;16578;53.266;7.920;2022-08-25T14:46:26;6.85;;;4.40;;
29662;SDS011;16578;53.266;7.920;2022-08-25T14:49:00;6.50;;;4.25;;
29662;SDS011;16578;53.266;7.920;2022-08-25T14:51:30;6.22;;;4.78;;
29662;SDS011;16578;53.266;7.920;2022-08-25T14:53:58;4.17;;;3.73;;
29662;SDS011;16578;53.266;7.920;2022-08-25T14:56:30;6.93;;;4.82;;
29662;SDS011;16578;53.266;7.920;2022-08-25T14:58:57;6.53;;;4.68;;
29662;SDS011;16578;53.266;7.920;2022-08-25T15:01:23;5.40;;;4.13;;
29662;SDS011;16578;53.266;7.920;2022-08-25T15:03:51;5.05;;;4.40;;
29662;SDS011;16578;53.266;7.920;2022-08-25T15:06:19;5.63;;;3.85;;
29662;SDS011;16578;53.266;7.920;2022-08-25T15:08:45;6.43;;;4.20;;
29662;SDS011;16578;53.266;7.920;2022-08-25T15:11:29;5.70;;;4.18;;
29662;SDS011;16578;53.266;7.920;2022-08-25T15:13:56;4.65;;;3.75;;
29662;SDS011;16578;53.266;7.920;2022-08-25T15:18:51;8.43;;;4.13;;
29662;SDS011;16578;53.266;7.920;2022-08-25T15:21:17;5.78;;;4.10;;
29662;SDS011;16578;53.266;7.920;2022-08-25T15:23:43;4.88;;;4.03;;
29662;SDS011;16578;53.266;7.920;2022-08-25T15:26:10;5.68;;;4.07;;
29662;SDS011;16578;53.266;7.920;2022-08-25T15:31:09;4.50;;;3.78;;
29662;SDS011;16578;53.266;7.920;2022-08-25T15:33:36;6.15;;;4.07;;
29662;SDS011;16578;53.266;7.920;2022-08-25T15:36:03;8.32;;;4.40;;
29662;SDS011;16578;53.266;7.920;2022-08-25T15:38:35;6.05;;;4.07;;
29662;SDS011;16578;53.266;7.920;2022-08-25T15:41:01;5.10;;;4.07;;
29662;SDS011;16578;53.266;7.920;2022-08-25T15:43:27;5.57;;;4.25;;
29662;SDS011;16578;53.266;7.920;2022-08-25T15:45:52;6.22;;;4.60;;
29662;SDS011;16578;53.266;7.920;2022-08-25T15:48:18;7.70;;;4.80;;
29662;SDS011;16578;53.266;7.920;2022-08-25T15:50:43;6.32;;;4.57;;
29662;SDS011;16578;53.266;7.920;2022-08-25T15:53:11;8.27;;;4.60;;
29662;SDS011;16578;53.266;7.920;2022-08-25T15:55:37;5.88;;;4.13;;
29662;SDS011;16578;53.266;7.920;2022-08-25T15:58:04;6.57;;;4.47;;
29662;SDS011;16578;53.266;7.920;2022-08-25T16:00:29;7.03;;;4.57;;
29662;SDS011;16578;53.266;7.920;2022-08-25T16:02:55;10.07;;;4.68;;
29662;SDS011;16578;53.266;7.920;2022-08-25T16:05:21;6.05;;;4.75;;
29662;SDS011;16578;53.266;7.920;2022-08-25T16:07:47;6.28;;;4.53;;
29662;SDS011;16578;53.266;7.920;2022-08-25T16:10:13;9.27;;;4.70;;
29662;SDS011;16578;53.266;7.920;2022-08-25T16:12:38;9.38;;;4.25;;
29662;SDS011;16578;53.266;7.920;2022-08-25T16:15:05;7.07;;;4.57;;
29662;SDS011;16578;53.266;7.920;2022-08-25T16:17:31;5.32;;;4.57;;
29662;SDS011;16578;53.266;7.920;2022-08-25T16:19:56;7.82;;;4.68;;
29662;SDS011;16578;53.266;7.920;2022-08-25T16:22:22;6.03;;;4.63;;
29662;SDS011;16578;53.266;7.920;2022-08-25T16:24:48;8.48;;;4.75;;
29662;SDS011;16578;53.266;7.920;2022-08-25T16:27:13;6.18;;;4.50;;
29662;SDS011;16578;53.266;7.920;2022-08-25T16:29:40;11.80;;;4.82;;
29662;SDS011;16578;53.266;7.920;2022-08-25T16:32:08;6.30;;;4.47;;
29662;SDS011;16578;53.266;7.920;2022-08-25T16:34:34;7.90;;;4.90;;
29662;SDS011;16578;53.266;7.920;2022-08-25T16:37:00;7.80;;;5.15;;
29662;SDS011;16578;53.266;7.920;2022-08-25T16:39:26;5.15;;;4.47;;
29662;SDS011;16578;53.266;7.920;2022-08-25T16:41:52;5.00;;;4.50;;
29662;SDS011;16578;53.266;7.920;2022-08-25T16:44:18;6.63;;;4.57;;
29662;SDS011;16578;53.266;7.920;2022-08-25T16:46:45;8.25;;;4.40;;
29662;SDS011;16578;53.266;7.920;2022-08-25T16:49:12;5.13;;;4.30;;
29662;SDS011;16578;53.266;7.920;2022-08-25T16:51:39;6.00;;;4.45;;
29662;SDS011;16578;53.266;7.920;2022-08-25T16:54:06;5.40;;;4.47;;
29662;SDS011;16578;53.266;7.920;2022-08-25T16:56:51;5.95;;;4.28;;
29662;SDS011;16578;53.266;7.920;2022-08-25T16:59:17;5.88;;;4.68;;
29662;SDS011;16578;53.266;7.920;2022-08-25T17:01:43;9.77;;;5.10;;
29662;SDS011;16578;53.266;7.920;2022-08-25T17:04:09;6.43;;;4.88;;
29662;SDS011;16578;53.266;7.920;2022-08-25T17:06:37;6.03;;;4.60;;
29662;SDS011;16578;53.266;7.920;2022-08-25T17:09:05;5.28;;;4.55;;
29662;SDS011;16578;53.266;7.920;2022-08-25T17:11:33;7.53;;;4.75;;